Time;durP1;ratioP1;P1;durP2;ratioP2;P2;SDS_P1;SDS_P2;PMS_P1;PMS_P2;Temp;Humidity;BMP_temperature;BMP_pressure;BME280_temperature;BME280_humidity;BME280_pressure;Samples;Min_cycle;Max_cycle;Signal;HPM_P1;HPM_P2
2021/06/28 00:03:46;;;;;;;3.93;2.20;;;;;;;;;;10485459;28;20216;-70
2021/06/28 00:08:48;;;;;;;2.60;1.77;;;;;;;;;;10487680;28;20223;-70
2021/06/28 00:13:53;;;;;;;5.13;1.77;;;;;;;;;;10482037;28;20279;-70
2021/06/28 00:19:00;;;;;;;3.47;1.70;;;;;;;;;;10487210;28;20274;-69
2021/06/28 00:24:03;;;;;;;2.57;1.57;;;;;;;;;;10486893;28;20709;-70
2021/06/28 00:29:05;;;;;;;2.33;1.50;;;;;;;;;;10480688;28;20235;-71
2021/06/28 00:34:09;;;;;;;4.47;1.83;;;;;;;;;;10477231;28;20194;-71
2021/06/28 00:39:11;;;;;;;4.23;1.90;;;;;;;;;;10482877;28;20688;-71
2021/06/28 00:44:14;;;;;;;4.80;2.00;;;;;;;;;;10485477;28;20207;-72
2021/06/28 00:49:18;;;;;;;3.00;1.80;;;;;;;;;;10485054;28;20295;-71
2021/06/28 00:54:20;;;;;;;3.10;1.80;;;;;;;;;;10481013;28;20747;-68
2021/06/28 00:59:23;;;;;;;3.30;2.00;;;;;;;;;;10485847;28;20228;-69
2021/06/28 01:04:28;;;;;;;3.17;1.90;;;;;;;;;;10485139;28;20200;-70
2021/06/28 01:09:30;;;;;;;3.43;1.93;;;;;;;;;;10482165;28;20250;-69
2021/06/28 01:14:33;;;;;;;3.70;1.80;;;;;;;;;;10481711;28;20247;-70
2021/06/28 01:19:38;;;;;;;3.30;1.97;;;;;;;;;;10485702;28;20676;-71
2021/06/28 01:24:42;;;;;;;2.83;1.90;;;;;;;;;;10483131;28;20308;-71
2021/06/28 01:29:45;;;;;;;2.50;1.70;;;;;;;;;;10486258;28;20602;-71
2021/06/28 01:34:48;;;;;;;2.20;1.60;;;;;;;;;;10481957;28;20254;-69
2021/06/28 01:39:52;;;;;;;4.53;1.70;;;;;;;;;;10487183;28;20218;-71
2021/06/28 01:44:55;;;;;;;3.13;1.73;;;;;;;;;;10492278;28;20285;-70
2021/06/28 01:49:57;;;;;;;3.30;1.87;;;;;;;;;;10494665;28;20256;-70
2021/06/28 01:55:01;;;;;;;3.33;2.00;;;;;;;;;;10490003;28;20650;-70
2021/06/28 02:00:04;;;;;;;3.03;1.87;;;;;;;;;;10494008;28;20216;-70
2021/06/28 02:05:08;;;;;;;3.07;1.80;;;;;;;;;;10489010;28;20231;-70
2021/06/28 02:10:12;;;;;;;3.00;1.87;;;;;;;;;;10487821;28;20655;-71
2021/06/28 02:15:17;;;;;;;3.40;1.70;;;;;;;;;;10487919;28;20193;-70
2021/06/28 02:20:20;;;;;;;3.30;1.80;;;;;;;;;;10491222;28;20246;-70
2021/06/28 02:25:24;;;;;;;2.23;1.60;;;;;;;;;;10491698;28;20230;-70
2021/06/28 02:30:27;;;;;;;2.23;1.60;;;;;;;;;;10509134;28;20780;-69
2021/06/28 02:35:29;;;;;;;2.30;1.60;;;;;;;;;;10491760;28;20591;-70
2021/06/28 02:40:33;;;;;;;3.33;1.80;;;;;;;;;;10492820;28;20219;-73
2021/06/28 02:45:36;;;;;;;3.13;1.70;;;;;;;;;;10492347;28;20212;-70
2021/06/28 02:50:40;;;;;;;2.50;1.70;;;;;;;;;;10491336;28;20219;-71
2021/06/28 02:55:44;;;;;;;2.20;1.50;;;;;;;;;;10506754;28;20251;-70
2021/06/28 03:00:47;;;;;;;2.70;1.80;;;;;;;;;;10482850;28;20247;-68
2021/06/28 03:05:49;;;;;;;4.20;1.90;;;;;;;;;;10487053;28;20616;-70
2021/06/28 03:10:53;;;;;;;3.70;1.93;;;;;;;;;;10490523;28;20270;-67
2021/06/28 03:15:56;;;;;;;2.63;1.80;;;;;;;;;;10489265;28;20640;-70
2021/06/28 03:20:58;;;;;;;3.37;2.00;;;;;;;;;;10483343;28;20749;-70
2021/06/28 03:26:02;;;;;;;3.10;1.83;;;;;;;;;;10488246;28;20244;-70
2021/06/28 03:31:06;;;;;;;3.17;1.90;;;;;;;;;;10491425;28;20291;-71
2021/06/28 03:36:09;;;;;;;4.20;2.00;;;;;;;;;;10490235;28;20195;-71
2021/06/28 03:41:13;;;;;;;3.07;1.90;;;;;;;;;;10487004;28;20220;-71
2021/06/28 03:46:16;;;;;;;4.27;1.97;;;;;;;;;;10485764;28;20244;-71
2021/06/28 03:51:18;;;;;;;5.07;2.17;;;;;;;;;;10503223;28;20663;-69
2021/06/28 03:56:22;;;;;;;3.30;2.00;;;;;;;;;;10489205;28;20637;-70
2021/06/28 04:01:25;;;;;;;4.80;2.30;;;;;;;;;;10486268;28;20579;-71
2021/06/28 04:06:27;;;;;;;4.07;2.17;;;;;;;;;;10487012;28;20299;-72
2021/06/28 04:11:31;;;;;;;4.17;2.17;;;;;;;;;;10487752;28;20537;-71
2021/06/28 04:16:34;;;;;;;3.67;2.20;;;;;;;;;;10485991;28;20556;-71
2021/06/28 04:21:37;;;;;;;4.40;2.27;;;;;;;;;;10483291;28;20293;-71
2021/06/28 04:26:41;;;;;;;4.60;2.60;;;;;;;;;;10486212;28;20240;-72
2021/06/28 04:31:43;;;;;;;4.60;2.30;;;;;;;;;;10486185;28;20240;-71
2021/06/28 04:36:46;;;;;;;5.43;2.77;;;;;;;;;;10491679;28;20227;-72
2021/06/28 04:41:50;;;;;;;5.10;2.80;;;;;;;;;;10495814;28;20264;-72
2021/06/28 04:46:53;;;;;;;6.57;3.17;;;;;;;;;;10501398;28;20216;-73
2021/06/28 04:51:55;;;;;;;5.77;2.67;;;;;;;;;;10497813;28;20533;-74
2021/06/28 04:56:59;;;;;;;5.93;3.00;;;;;;;;;;10490006;28;20207;-73
2021/06/28 05:02:02;;;;;;;6.00;2.77;;;;;;;;;;10493297;28;20216;-73
2021/06/28 05:07:05;;;;;;;4.93;2.70;;;;;;;;;;10484707;28;20228;-74
2021/06/28 05:12:09;;;;;;;5.07;2.77;;;;;;;;;;10483004;28;20216;-73
2021/06/28 05:17:12;;;;;;;4.50;2.90;;;;;;;;;;10485934;28;20613;-72
2021/06/28 05:22:14;;;;;;;4.90;3.00;;;;;;;;;;10484397;28;20208;-72
2021/06/28 05:27:18;;;;;;;9.73;3.53;;;;;;;;;;10485592;28;20291;-71
2021/06/28 05:32:21;;;;;;;5.13;3.17;;;;;;;;;;10484871;28;20311;-73
2021/06/28 05:37:24;;;;;;;6.63;3.40;;;;;;;;;;10485411;28;20226;-71
2021/06/28 05:42:27;;;;;;;7.70;3.47;;;;;;;;;;10485544;28;20208;-71
2021/06/28 05:47:32;;;;;;;5.00;3.37;;;;;;;;;;10483142;28;20216;-72
2021/06/28 05:52:35;;;;;;;6.33;3.30;;;;;;;;;;10477761;28;20216;-73
2021/06/28 05:57:39;;;;;;;5.60;3.40;;;;;;;;;;10485828;28;20566;-71
2021/06/28 06:02:41;;;;;;;6.80;3.50;;;;;;;;;;10485308;28;20282;-71
2021/06/28 06:07:44;;;;;;;7.07;3.13;;;;;;;;;;10483353;28;20334;-74
2021/06/28 06:12:48;;;;;;;7.27;3.50;;;;;;;;;;10485896;28;20588;-72
2021/06/28 06:17:51;;;;;;;7.13;3.10;;;;;;;;;;10481264;28;20295;-72
2021/06/28 06:22:54;;;;;;;5.70;3.30;;;;;;;;;;10484312;28;20247;-70
2021/06/28 06:27:58;;;;;;;6.13;3.50;;;;;;;;;;10481298;28;20321;-72
2021/06/28 06:33:01;;;;;;;5.73;3.40;;;;;;;;;;10492876;28;20519;-72
2021/06/28 06:38:04;;;;;;;6.73;3.43;;;;;;;;;;10493291;28;20630;-73
2021/06/28 06:43:08;;;;;;;6.83;3.20;;;;;;;;;;10509026;28;20303;-72
2021/06/28 06:48:11;;;;;;;5.87;3.37;;;;;;;;;;10491512;28;20201;-72
2021/06/28 06:53:13;;;;;;;7.43;3.30;;;;;;;;;;10491958;28;20239;-72
2021/06/28 06:58:17;;;;;;;6.73;3.10;;;;;;;;;;10490291;28;20188;-70
2021/06/28 07:03:20;;;;;;;7.50;2.90;;;;;;;;;;10490262;28;20292;-71
2021/06/28 07:08:22;;;;;;;6.40;2.80;;;;;;;;;;10486672;28;20220;-72
2021/06/28 07:13:26;;;;;;;13.30;3.03;;;;;;;;;;10506803;28;20283;-72
2021/06/28 07:18:29;;;;;;;5.37;3.10;;;;;;;;;;10483598;28;20201;-72
2021/06/28 07:23:32;;;;;;;5.27;2.47;;;;;;;;;;10490287;28;20684;-72
2021/06/28 07:28:36;;;;;;;4.00;2.33;;;;;;;;;;10481591;28;20663;-74
2021/06/28 07:33:41;;;;;;;5.50;2.47;;;;;;;;;;10482550;28;20490;-70
2021/06/28 07:38:43;;;;;;;5.20;2.90;;;;;;;;;;10486495;28;20294;-70
2021/06/28 07:43:48;;;;;;;5.60;3.20;;;;;;;;;;10485642;28;20280;-72
2021/06/28 07:48:54;;;;;;;5.40;2.97;;;;;;;;;;10478668;28;20269;-70
2021/06/28 07:53:57;;;;;;;4.88;2.50;;;;;;;;;;10489036;28;20249;-73
2021/06/28 07:59:04;;;;;;;5.10;2.50;;;;;;;;;;10484352;28;20654;-71
2021/06/28 08:04:07;;;;;;;3.58;2.53;;;;;;;;;;10482364;28;20239;-72
2021/06/28 08:09:09;;;;;;;3.35;2.45;;;;;;;;;;10487579;28;20330;-74
2021/06/28 08:14:14;;;;;;;4.13;2.75;;;;;;;;;;10484711;28;20189;-74
2021/06/28 08:19:16;;;;;;;5.18;2.50;;;;;;;;;;10478029;28;20226;-72
2021/06/28 08:24:19;;;;;;;4.30;2.60;;;;;;;;;;10486253;28;20228;-72
2021/06/28 08:29:23;;;;;;;4.38;2.40;;;;;;;;;;10480965;28;20223;-73
2021/06/28 08:34:25;;;;;;;3.95;2.45;;;;;;;;;;10485211;28;20667;-72
2021/06/28 08:39:29;;;;;;;3.90;2.40;;;;;;;;;;10487901;28;20646;-73
2021/06/28 08:44:33;;;;;;;4.45;2.40;;;;;;;;;;10488817;28;20299;-73
2021/06/28 08:49:37;;;;;;;4.78;2.80;;;;;;;;;;10486077;28;20239;-73
2021/06/28 08:54:39;;;;;;;3.60;2.40;;;;;;;;;;10482284;28;20279;-71
2021/06/28 08:59:43;;;;;;;2.58;1.90;;;;;;;;;;10481015;28;20341;-73
2021/06/28 09:04:59;;;;;;;2.67;2.08;;;;;;;;;;10487304;28;20235;-71
2021/06/28 09:10:01;;;;;;;2.88;2.22;;;;;;;;;;10487840;28;20277;-73
2021/06/28 09:15:06;;;;;;;3.67;2.20;;;;;;;;;;10485872;28;20275;-73
2021/06/28 09:20:13;;;;;;;3.88;2.20;;;;;;;;;;10482247;28;20291;-73
2021/06/28 09:25:31;;;;;;;3.67;2.38;;;;;;;;;;10486803;28;20370;-73
2021/06/28 09:30:40;;;;;;;3.35;2.60;;;;;;;;;;10486061;28;20273;-74
2021/06/28 09:35:44;;;;;;;3.95;2.70;;;;;;;;;;10480155;28;20192;-74
2021/06/28 09:40:46;;;;;;;5.05;2.70;;;;;;;;;;10485767;28;20226;-74
2021/06/28 09:45:55;;;;;;;4.25;2.97;;;;;;;;;;10487641;28;20375;-73
2021/06/28 09:51:13;;;;;;;3.58;2.90;;;;;;;;;;10483528;28;20845;-73
2021/06/28 09:56:29;;;;;;;5.03;2.75;;;;;;;;;;10485993;28;20234;-74
2021/06/28 10:01:32;;;;;;;4.28;2.63;;;;;;;;;;10478528;28;20268;-73
2021/06/28 10:06:37;;;;;;;2.83;2.47;;;;;;;;;;10493654;28;20226;-73
2021/06/28 10:11:42;;;;;;;5.47;3.00;;;;;;;;;;10494679;28;20286;-73
2021/06/28 10:16:46;;;;;;;3.67;2.80;;;;;;;;;;10493510;28;20195;-73
2021/06/28 10:21:49;;;;;;;5.60;2.70;;;;;;;;;;10493004;28;20242;-71
2021/06/28 10:26:54;;;;;;;3.85;2.60;;;;;;;;;;10487543;28;20212;-73
2021/06/28 10:32:02;;;;;;;3.22;2.50;;;;;;;;;;10490397;28;20628;-73
2021/06/28 10:37:29;;;;;;;3.72;2.40;;;;;;;;;;10493427;28;20220;-72
2021/06/28 10:42:32;;;;;;;2.40;2.20;;;;;;;;;;10492503;28;20385;-73
2021/06/28 10:47:36;;;;;;;7.20;2.85;;;;;;;;;;10487228;28;20204;-73
2021/06/28 10:52:49;;;;;;;2.47;2.20;;;;;;;;;;10489285;28;20279;-72
2021/06/28 10:57:53;;;;;;;3.13;2.22;;;;;;;;;;10485000;28;20548;-73
2021/06/28 11:02:57;;;;;;;2.17;2.08;;;;;;;;;;10492279;28;20281;-74
2021/06/28 11:08:20;;;;;;;3.42;2.40;;;;;;;;;;10488112;28;20226;-72
2021/06/28 11:13:28;;;;;;;2.78;1.90;;;;;;;;;;10483609;28;20766;-73
2021/06/28 11:18:32;;;;;;;3.10;2.00;;;;;;;;;;10488341;28;20278;-71
2021/06/28 11:23:34;;;;;;;2.50;2.00;;;;;;;;;;10490457;28;20290;-73
2021/06/28 11:28:38;;;;;;;2.20;2.00;;;;;;;;;;10491065;28;20569;-73
2021/06/28 11:33:45;;;;;;;3.17;2.10;;;;;;;;;;10487329;28;20606;-73
2021/06/28 11:38:48;;;;;;;2.95;1.80;;;;;;;;;;10487353;28;20235;-73
2021/06/28 11:43:51;;;;;;;3.17;1.83;;;;;;;;;;10491625;28;20196;-73
2021/06/28 11:48:59;;;;;;;2.58;1.90;;;;;;;;;;10486122;28;20640;-71
2021/06/28 11:54:03;;;;;;;1.88;1.70;;;;;;;;;;10488888;28;20245;-72
2021/06/28 11:59:06;;;;;;;5.45;2.05;;;;;;;;;;10490826;28;20200;-72
2021/06/28 12:04:14;;;;;;;2.28;1.80;;;;;;;;;;10485380;28;20207;-73
2021/06/28 12:09:18;;;;;;;4.07;2.20;;;;;;;;;;10487963;28;20252;-73
2021/06/28 12:14:28;;;;;;;4.05;1.80;;;;;;;;;;10485879;28;20583;-72
2021/06/28 12:19:32;;;;;;;3.13;1.75;;;;;;;;;;10481865;28;20243;-72
2021/06/28 12:24:35;;;;;;;2.00;1.80;;;;;;;;;;10488947;28;20207;-71
2021/06/28 12:29:38;;;;;;;3.25;2.00;;;;;;;;;;10482830;28;20264;-72
2021/06/28 12:34:45;;;;;;;4.32;1.90;;;;;;;;;;10489627;28;20616;-72
2021/06/28 12:39:50;;;;;;;2.47;1.90;;;;;;;;;;10478050;28;20638;-73
2021/06/28 12:44:56;;;;;;;5.03;3.08;;;;;;;;;;10485730;28;20260;-73
2021/06/28 12:50:00;;;;;;;3.35;1.98;;;;;;;;;;10484437;28;20778;-72
2021/06/28 12:55:07;;;;;;;3.42;2.08;;;;;;;;;;10487336;28;20237;-72
2021/06/28 13:00:17;;;;;;;3.88;1.90;;;;;;;;;;10483514;28;20269;-72
2021/06/28 13:05:28;;;;;;;2.53;1.80;;;;;;;;;;10487105;28;20287;-71
2021/06/28 13:10:31;;;;;;;2.58;1.80;;;;;;;;;;10486630;28;20220;-72
2021/06/28 13:15:34;;;;;;;2.45;1.90;;;;;;;;;;10481245;28;20208;-72
2021/06/28 13:20:38;;;;;;;2.97;2.00;;;;;;;;;;10475444;28;20200;-71
2021/06/28 13:25:41;;;;;;;2.78;2.05;;;;;;;;;;10474888;28;20223;-72
2021/06/28 13:30:44;;;;;;;3.75;2.00;;;;;;;;;;10485220;28;20690;-72
2021/06/28 13:35:48;;;;;;;4.35;2.00;;;;;;;;;;10486109;28;20184;-72
2021/06/28 13:40:57;;;;;;;2.20;1.90;;;;;;;;;;10494417;28;20207;-74
2021/06/28 13:46:00;;;;;;;2.80;1.88;;;;;;;;;;10500386;28;20236;-72
2021/06/28 13:51:11;;;;;;;8.82;2.25;;;;;;;;;;10499850;28;20321;-72
2021/06/28 13:56:13;;;;;;;2.53;1.95;;;;;;;;;;10499395;28;20188;-72
2021/06/28 14:01:16;;;;;;;3.65;1.88;;;;;;;;;;10499092;28;20556;-72
2021/06/28 14:06:20;;;;;;;4.85;2.08;;;;;;;;;;10497118;28;20188;-70
2021/06/28 14:11:22;;;;;;;2.00;1.80;;;;;;;;;;10498240;28;20219;-72
2021/06/28 14:16:25;;;;;;;2.92;1.90;;;;;;;;;;10498766;28;20210;-72
2021/06/28 14:21:30;;;;;;;2.47;1.95;;;;;;;;;;10498988;28;20216;-72
2021/06/28 14:26:33;;;;;;;3.60;1.70;;;;;;;;;;10492761;28;20208;-71
2021/06/28 14:31:35;;;;;;;4.25;1.90;;;;;;;;;;10493367;28;20676;-72
2021/06/28 14:37:10;;;;;;;3.13;1.90;;;;;;;;;;10495255;28;20501;-71
2021/06/28 14:42:20;;;;;;;2.95;1.98;;;;;;;;;;10501880;28;20212;-71
2021/06/28 14:47:24;;;;;;;4.07;2.22;;;;;;;;;;10498543;28;20204;-72
2021/06/28 14:52:28;;;;;;;3.92;1.95;;;;;;;;;;10491362;28;20248;-71
2021/06/28 14:57:30;;;;;;;2.90;2.10;;;;;;;;;;10490328;28;20214;-71
2021/06/28 15:02:33;;;;;;;3.95;1.95;;;;;;;;;;10485055;28;20236;-71
2021/06/28 15:07:38;;;;;;;2.70;1.90;;;;;;;;;;10491480;28;20605;-72
2021/06/28 15:12:41;;;;;;;3.38;2.00;;;;;;;;;;10493135;28;20246;-72
2021/06/28 15:17:44;;;;;;;3.53;1.92;;;;;;;;;;10490790;28;20708;-72
2021/06/28 15:22:49;;;;;;;5.55;2.50;;;;;;;;;;10490845;28;20311;-71
2021/06/28 15:27:52;;;;;;;3.35;1.80;;;;;;;;;;10488045;28;20204;-72
2021/06/28 15:32:56;;;;;;;4.00;1.70;;;;;;;;;;10493527;28;20246;-72
2021/06/28 15:38:00;;;;;;;2.83;1.90;;;;;;;;;;10481759;28;20287;-71
2021/06/28 15:43:03;;;;;;;1.58;1.48;;;;;;;;;;10480161;28;20298;-72
2021/06/28 15:48:07;;;;;;;2.40;1.60;;;;;;;;;;10484076;28;20254;-72
2021/06/28 15:53:11;;;;;;;2.72;1.55;;;;;;;;;;10488567;28;20238;-71
2021/06/28 15:58:14;;;;;;;3.00;1.65;;;;;;;;;;10489369;28;20215;-72
2021/06/28 16:03:16;;;;;;;6.78;2.25;;;;;;;;;;10488598;28;20212;-71
2021/06/28 16:08:20;;;;;;;1.90;1.70;;;;;;;;;;10488257;28;20241;-72
2021/06/28 16:13:23;;;;;;;3.17;1.83;;;;;;;;;;10488322;28;20364;-72
2021/06/28 16:18:25;;;;;;;4.47;2.40;;;;;;;;;;10488933;28;20287;-72
2021/06/28 16:23:29;;;;;;;3.95;1.95;;;;;;;;;;10501681;28;20819;-73
2021/06/28 16:28:32;;;;;;;4.13;2.10;;;;;;;;;;10488224;28;20262;-71
2021/06/28 16:33:34;;;;;;;3.42;2.33;;;;;;;;;;10487845;28;20203;-72
2021/06/28 16:38:38;;;;;;;3.45;2.20;;;;;;;;;;10484558;28;20262;-71
2021/06/28 16:43:43;;;;;;;5.25;2.40;;;;;;;;;;10473873;28;20205;-72
2021/06/28 16:48:50;;;;;;;4.07;2.42;;;;;;;;;;10487313;28;20255;-72
2021/06/28 16:53:54;;;;;;;4.28;2.55;;;;;;;;;;10483614;28;20207;-73
2021/06/28 16:59:00;;;;;;;4.47;2.72;;;;;;;;;;10487307;28;20249;-72
2021/06/28 17:04:07;;;;;;;4.32;2.70;;;;;;;;;;10483144;28;20532;-72
2021/06/28 17:09:11;;;;;;;6.63;3.40;;;;;;;;;;10485231;28;20295;-73
2021/06/28 17:14:13;;;;;;;5.97;3.10;;;;;;;;;;10487447;28;20246;-72
2021/06/28 17:19:16;;;;;;;5.97;3.40;;;;;;;;;;10481906;28;20797;-72
2021/06/28 17:24:20;;;;;;;5.53;3.60;;;;;;;;;;10484108;28;20199;-72
2021/06/28 17:29:25;;;;;;;7.35;3.40;;;;;;;;;;10495759;28;20224;-72
2021/06/28 17:34:31;;;;;;;6.80;3.60;;;;;;;;;;10484588;28;20188;-72
2021/06/28 17:39:35;;;;;;;5.95;3.53;;;;;;;;;;10488070;28;20215;-72
2021/06/28 17:44:37;;;;;;;5.47;3.65;;;;;;;;;;10487994;28;20188;-73
2021/06/28 17:49:40;;;;;;;4.70;3.10;;;;;;;;;;10487837;28;20281;-74
2021/06/28 17:54:44;;;;;;;6.25;3.10;;;;;;;;;;10490662;28;21107;-72
2021/06/28 17:59:47;;;;;;;5.18;2.95;;;;;;;;;;10488473;28;20712;-72
2021/06/28 18:04:49;;;;;;;5.28;2.80;;;;;;;;;;10486633;28;20223;-72
2021/06/28 18:09:53;;;;;;;5.88;3.10;;;;;;;;;;10484729;28;20657;-71
2021/06/28 18:14:56;;;;;;;5.53;2.83;;;;;;;;;;10483664;28;20267;-72
2021/06/28 18:20:03;;;;;;;4.47;2.90;;;;;;;;;;10488022;28;20633;-71
2021/06/28 18:25:09;;;;;;;4.85;3.00;;;;;;;;;;10488636;28;20238;-74
2021/06/28 18:30:12;;;;;;;3.33;2.67;;;;;;;;;;10484317;28;20299;-73
2021/06/28 18:35:15;;;;;;;4.28;2.70;;;;;;;;;;10487642;28;20268;-73
2021/06/28 18:40:23;;;;;;;4.35;2.50;;;;;;;;;;10485727;28;20231;-73
2021/06/28 18:45:25;;;;;;;4.47;2.50;;;;;;;;;;10490650;28;20602;-73
2021/06/28 18:50:28;;;;;;;5.13;2.70;;;;;;;;;;10487886;28;20592;-74
2021/06/28 18:55:32;;;;;;;6.43;2.80;;;;;;;;;;10487216;28;20284;-72
2021/06/28 19:00:36;;;;;;;4.60;2.50;;;;;;;;;;10489583;28;20563;-72
2021/06/28 19:05:39;;;;;;;3.90;2.60;;;;;;;;;;10488207;28;20268;-73
2021/06/28 19:10:43;;;;;;;4.10;2.60;;;;;;;;;;10491027;28;20737;-73
2021/06/28 19:15:45;;;;;;;4.93;2.90;;;;;;;;;;10491404;28;20219;-73
2021/06/28 19:20:48;;;;;;;5.57;3.03;;;;;;;;;;10491657;28;20212;-72
2021/06/28 19:25:52;;;;;;;5.13;3.08;;;;;;;;;;10491576;28;20259;-72
2021/06/28 19:30:54;;;;;;;4.93;2.72;;;;;;;;;;10489190;28;20659;-71
2021/06/28 19:35:57;;;;;;;5.35;3.03;;;;;;;;;;10488099;28;20215;-70
2021/06/28 19:41:01;;;;;;;5.90;2.90;;;;;;;;;;10493151;28;20294;-72
2021/06/28 19:46:04;;;;;;;4.75;2.70;;;;;;;;;;10495707;28;20200;-71
2021/06/28 19:51:07;;;;;;;6.45;2.90;;;;;;;;;;10495066;28;20215;-72
2021/06/28 19:56:10;;;;;;;5.95;3.10;;;;;;;;;;10491735;28;20235;-70
2021/06/28 20:01:16;;;;;;;5.78;3.15;;;;;;;;;;10489865;28;20208;-70
2021/06/28 20:06:18;;;;;;;5.50;3.28;;;;;;;;;;10503668;28;20192;-71
2021/06/28 20:11:22;;;;;;;7.22;3.30;;;;;;;;;;10479899;28;20607;-72
2021/06/28 20:16:25;;;;;;;7.40;3.00;;;;;;;;;;10489182;28;20216;-72
2021/06/28 20:21:29;;;;;;;7.40;3.85;;;;;;;;;;10489593;28;20219;-71
2021/06/28 20:26:33;;;;;;;6.50;3.40;;;;;;;;;;10488592;28;20826;-71
2021/06/28 20:31:35;;;;;;;5.80;3.50;;;;;;;;;;10488736;28;20246;-71
2021/06/28 20:36:38;;;;;;;6.53;3.30;;;;;;;;;;10495463;28;20238;-71
2021/06/28 20:41:42;;;;;;;7.60;4.50;;;;;;;;;;10486417;28;20266;-71
2021/06/28 20:46:44;;;;;;;5.93;3.13;;;;;;;;;;10487375;28;20238;-71
2021/06/28 20:51:47;;;;;;;5.88;3.00;;;;;;;;;;10487513;28;20265;-72
2021/06/28 20:56:51;;;;;;;6.40;3.70;;;;;;;;;;10487368;28;20279;-71
2021/06/28 21:01:54;;;;;;;6.55;3.70;;;;;;;;;;10486884;28;20216;-72
2021/06/28 21:06:57;;;;;;;5.82;3.60;;;;;;;;;;10484248;28;20197;-72
2021/06/28 21:12:01;;;;;;;6.25;3.60;;;;;;;;;;10482248;28;20979;-71
2021/06/28 21:17:04;;;;;;;5.97;3.20;;;;;;;;;;10488091;28;20208;-72
2021/06/28 21:22:07;;;;;;;10.50;3.65;;;;;;;;;;10503213;28;20235;-73
2021/06/28 21:27:11;;;;;;;6.28;3.50;;;;;;;;;;10493787;28;20227;-75
2021/06/28 21:32:13;;;;;;;7.43;2.75;;;;;;;;;;10485072;28;20242;-75
2021/06/28 21:37:16;;;;;;;5.00;2.65;;;;;;;;;;10483519;28;20200;-75
2021/06/28 21:42:20;;;;;;;5.13;2.50;;;;;;;;;;10485317;28;20593;-74
2021/06/28 21:47:22;;;;;;;7.80;3.73;;;;;;;;;;10480326;28;20249;-75
2021/06/28 21:52:25;;;;;;;10.40;4.23;;;;;;;;;;10483782;28;20318;-75
2021/06/28 21:57:29;;;;;;;8.37;4.33;;;;;;;;;;10490870;28;20211;-74
2021/06/28 22:02:31;;;;;;;9.23;5.07;;;;;;;;;;10494787;28;20242;-74
2021/06/28 22:07:34;;;;;;;7.53;4.50;;;;;;;;;;10487165;28;20204;-72
2021/06/28 22:12:38;;;;;;;6.73;3.97;;;;;;;;;;10494774;28;20208;-72
2021/06/28 22:17:41;;;;;;;7.83;4.17;;;;;;;;;;10492363;28;20648;-72
2021/06/28 22:22:44;;;;;;;7.57;4.37;;;;;;;;;;10488913;28;20304;-71
2021/06/28 22:27:48;;;;;;;7.90;4.60;;;;;;;;;;10494016;28;20253;-71
2021/06/28 22:32:51;;;;;;;6.70;3.93;;;;;;;;;;10489301;28;20646;-71
2021/06/28 22:37:53;;;;;;;7.67;3.50;;;;;;;;;;10492149;28;21029;-71
2021/06/28 22:42:57;;;;;;;7.13;3.73;;;;;;;;;;10490183;28;20256;-72
2021/06/28 22:48:00;;;;;;;7.67;3.83;;;;;;;;;;10491625;28;20200;-71
2021/06/28 22:53:03;;;;;;;7.70;3.40;;;;;;;;;;10492807;28;20544;-71
2021/06/28 22:58:07;;;;;;;5.10;2.47;;;;;;;;;;10492368;28;20271;-73
2021/06/28 23:03:10;;;;;;;6.43;2.83;;;;;;;;;;10491156;28;20211;-74
2021/06/28 23:08:12;;;;;;;4.90;2.70;;;;;;;;;;10489522;28;20188;-77
2021/06/28 23:13:16;;;;;;;4.37;2.53;;;;;;;;;;10485913;28;20262;-74
2021/06/28 23:18:19;;;;;;;6.03;3.00;;;;;;;;;;10485153;28;20212;-74
2021/06/28 23:23:21;;;;;;;5.73;2.57;;;;;;;;;;10486924;28;20301;-74
2021/06/28 23:28:25;;;;;;;5.13;2.97;;;;;;;;;;10487090;28;20490;-72
2021/06/28 23:33:28;;;;;;;6.43;2.93;;;;;;;;;;10485149;28;20730;-74
2021/06/28 23:38:31;;;;;;;5.63;3.17;;;;;;;;;;10486678;28;20306;-72
2021/06/28 23:43:35;;;;;;;5.53;3.00;;;;;;;;;;10489744;28;20280;-73
2021/06/28 23:48:38;;;;;;;6.00;3.20;;;;;;;;;;10489169;28;20281;-71
2021/06/28 23:53:41;;;;;;;4.80;3.07;;;;;;;;;;10489063;28;20235;-73
2021/06/28 23:58:45;;;;;;;5.37;3.20;;;;;;;;;;10488273;28;20261;-73
